Nearby METAR Reports

 

KBAX - Bad Axe, Michigan, USA
Distance from station: ESE 22mi, 35km
Updated: Tue, 18-Jun-2019 4:40pm EDT
Clear
Clear
 Wind from NW
Wind: NW 3 mph , 6 km/h
Temperature: 77°F , 25°C
Dew Point: 52°F , 11°C
Humidity: 42%
Barometer: 29.90 inHg , 1012.5 hPa
Clouds: Clear
Visibility: 10 miles , 16 km
2019/06/18 20:40 KBAX 182040Z AUTO 31003KT 10SM CLR 25/11 A2990 RMK AO2 T02540107
KFNT - Flint, Michigan, USA
Distance from station: SSW 68mi, 109km
Updated: Tue, 18-Jun-2019 3:53pm EDT
Overcast
Overcast
 Wind from W
Wind: W 7 mph , 11 km/h
Temperature: 79°F , 26°C
Dew Point: 59°F , 15°C
Humidity: 51%
Barometer: 29.91 inHg , 1012.9 hPa
Clouds: Overcast
Visibility: 10 miles , 16 km
Cloud details: Mostly cloudy 4000 ft
Overcast 6000 ft
2019/06/18 19:53 KFNT 181953Z 28006KT 10SM BKN040 OVC060 26/15 A2991 RMK AO2 SLP126 T02610150
KMBS - Saginaw, Michigan, USA
Distance from station: SW 44mi, 70km
Updated: Tue, 18-Jun-2019 3:53pm EDT
Partly cloudy
Partly cloudy
 Wind from calm
Wind: Calm
Temperature: 77°F , 25°C
Dew Point: 59°F , 15°C
Humidity: 54%
Barometer: 29.91 inHg , 1012.9 hPa
Clouds: Partly cloudy
Visibility: 10 miles , 16 km
Cloud details: Partly cloudy 4800 ft
2019/06/18 19:53 KMBS 181953Z 00000KT 10SM SCT048 25/15 A2991 RMK AO2 SLP128 T02500150
 
KDTW - Detroit/Wayne, Michigan, USA
Distance from station: SSE 117mi, 188km
Updated: Tue, 18-Jun-2019 3:53pm EDT
Mostly cloudy
Mostly cloudy
 Wind from varies
Wind: varies 5 mph , 7 km/h
Temperature: 79°F , 26°C
Dew Point: 59°F , 15°C
Humidity: 51%
Barometer: 29.92 inHg , 1013.2 hPa
Clouds: Mostly cloudy
Visibility: 10 miles , 16 km
Cloud details: Partly cloudy 3500 ft
Mostly cloudy 6000 ft
2019/06/18 19:53 KDTW 181953Z VRB04KT 10SM SCT035 BKN060 26/15 A2992 RMK AO2 SLP127 T02560150
KP58 - Port Hope, Michigan, USA
Distance from station: ENE 30mi, 48km
Updated: Tue, 18-Jun-2019 3:51pm EDT

 Wind from E
Wind: E 8 mph , 13 km/h
Temperature: 61°F , 16°C
Dew Point: 54°F , 12°C
Humidity: 77%
Barometer: 29.92 inHg , 1013.2 hPa
2019/06/18 19:51 KP58 181951Z AUTO 10007KT 16/12 A2992 RMK AO1 SLP133 T01560117
KCFS - Caro/Tuscola, Michigan, USA
Distance from station: S 31mi, 50km
Updated: Tue, 18-Jun-2019 4:36pm EDT
Mostly cloudy
Mostly cloudy
 Wind from S
Wind: S 6 mph , 9 km/h
Temperature: 77°F , 25°C
Dew Point: 61°F , 16°C
Humidity: 57%
Barometer: 29.90 inHg , 1012.5 hPa
Clouds: Mostly cloudy
Visibility: 10 miles , 16 km
Cloud details: Partly cloudy 4000 ft
Mostly cloudy 6000 ft
2019/06/18 20:36 KCFS 182036Z AUTO 18005KT 10SM SCT040 BKN060 25/16 A2990 RMK AO2 T02480156
 
KPHN - Port Huron, Michigan, USA
Distance from station: SSE 81mi, 131km
Updated: Tue, 18-Jun-2019 4:38pm EDT
Overcast
Overcast
 Wind from calm
Wind: Calm
Temperature: 77°F , 25°C
Dew Point: 57°F , 14°C
Humidity: 51%
Barometer: 29.91 inHg , 1012.9 hPa
Clouds: Overcast
Visibility: 10 miles , 16 km
Cloud details: Partly cloudy 3900 ft
Overcast 6500 ft
2019/06/18 20:38 KPHN 182038Z AUTO 00000KT 10SM SCT039 OVC065 25/14 A2991 RMK AO2
KPTK - Pontiac, Michigan, USA
Distance from station: S 86mi, 138km
Updated: Tue, 18-Jun-2019 3:53pm EDT
Mostly cloudy
Mostly cloudy
 Wind from varies
Wind: varies 5 mph , 7 km/h
Temperature: 75°F , 24°C
Dew Point: 61°F , 16°C
Humidity: 61%
Barometer: 29.90 inHg , 1012.5 hPa
Clouds: Mostly cloudy
Visibility: 10 miles , 16 km
Cloud details: Few Clouds 3500 ft
Mostly cloudy 7000 ft
2019/06/18 19:53 KPTK 181953Z VRB04KT 10SM FEW035 BKN070 24/16 A2990 RMK AO2 SLP122 T02390161
KMTC - Selfridge Angb, Michigan, USA
Distance from station: SSE 94mi, 151km
Updated: Tue, 18-Jun-2019 3:56pm EDT
Few Clouds
Few Clouds
 Wind from SSE
Wind: SSE 6 mph , 9 km/h
Temperature: 73°F , 23°C
Dew Point: 64°F , 18°C
Humidity: 74%
Barometer: 29.91 inHg , 1012.9 hPa
Clouds: Few Clouds
Visibility: 10 miles , 16 km
Cloud details: Few Clouds 6500 ft
Few Clouds 25000 ft
2019/06/18 19:56 KMTC 181956Z 15005KT 10SM FEW065 FEW250 23/18 A2991 RMK AO2A SLP132 T02330177